sensor_id;sensor_type;location;lat;lon;timestamp;P1;durP1;ratioP1;P2;durP2;ratioP2
74670;SDS011;63196;39.564;2.628;2023-04-26T00:01:16;5.60;;;2.50;;
74670;SDS011;63196;39.564;2.628;2023-04-26T00:03:42;4.90;;;1.70;;
74670;SDS011;63196;39.564;2.628;2023-04-26T00:06:07;7.10;;;2.70;;
74670;SDS011;63196;39.564;2.628;2023-04-26T00:08:37;8.40;;;2.80;;
74670;SDS011;63196;39.564;2.628;2023-04-26T00:11:02;7.50;;;2.10;;
74670;SDS011;63196;39.564;2.628;2023-04-26T00:13:27;5.30;;;2.60;;
74670;SDS011;63196;39.564;2.628;2023-04-26T00:15:53;6.80;;;2.30;;
74670;SDS011;63196;39.564;2.628;2023-04-26T00:18:18;4.70;;;2.10;;
74670;SDS011;63196;39.564;2.628;2023-04-26T00:20:44;6.10;;;2.20;;
74670;SDS011;63196;39.564;2.628;2023-04-26T00:23:10;6.10;;;2.00;;
74670;SDS011;63196;39.564;2.628;2023-04-26T00:25:36;5.70;;;2.20;;
74670;SDS011;63196;39.564;2.628;2023-04-26T00:28:01;7.20;;;2.40;;
74670;SDS011;63196;39.564;2.628;2023-04-26T00:30:29;4.70;;;2.00;;
74670;SDS011;63196;39.564;2.628;2023-04-26T00:35:20;6.00;;;2.30;;
74670;SDS011;63196;39.564;2.628;2023-04-26T00:37:45;5.10;;;2.10;;
74670;SDS011;63196;39.564;2.628;2023-04-26T00:40:11;5.50;;;2.10;;
74670;SDS011;63196;39.564;2.628;2023-04-26T00:42:37;6.60;;;2.60;;
74670;SDS011;63196;39.564;2.628;2023-04-26T00:45:03;4.60;;;2.30;;
74670;SDS011;63196;39.564;2.628;2023-04-26T00:47:29;7.30;;;2.60;;
74670;SDS011;63196;39.564;2.628;2023-04-26T00:49:55;6.50;;;2.30;;
74670;SDS011;63196;39.564;2.628;2023-04-26T00:52:20;4.00;;;2.30;;
74670;SDS011;63196;39.564;2.628;2023-04-26T00:54:47;5.20;;;2.20;;
74670;SDS011;63196;39.564;2.628;2023-04-26T00:57:12;7.40;;;2.20;;
74670;SDS011;63196;39.564;2.628;2023-04-26T00:59:38;5.70;;;2.30;;
74670;SDS011;63196;39.564;2.628;2023-04-26T01:02:03;8.00;;;2.90;;
74670;SDS011;63196;39.564;2.628;2023-04-26T01:04:29;5.40;;;2.50;;
74670;SDS011;63196;39.564;2.628;2023-04-26T01:06:55;5.00;;;2.60;;
74670;SDS011;63196;39.564;2.628;2023-04-26T01:09:20;6.60;;;2.60;;
74670;SDS011;63196;39.564;2.628;2023-04-26T01:11:46;5.20;;;2.60;;
74670;SDS011;63196;39.564;2.628;2023-04-26T01:14:11;4.40;;;2.40;;
74670;SDS011;63196;39.564;2.628;2023-04-26T01:16:38;5.50;;;2.30;;
74670;SDS011;63196;39.564;2.628;2023-04-26T01:19:11;5.40;;;2.60;;
74670;SDS011;63196;39.564;2.628;2023-04-26T01:21:37;6.20;;;2.10;;
74670;SDS011;63196;39.564;2.628;2023-04-26T01:24:02;7.10;;;2.50;;
74670;SDS011;63196;39.564;2.628;2023-04-26T01:26:28;4.20;;;2.00;;
74670;SDS011;63196;39.564;2.628;2023-04-26T01:28:53;5.80;;;2.80;;
74670;SDS011;63196;39.564;2.628;2023-04-26T01:31:18;5.20;;;2.30;;
74670;SDS011;63196;39.564;2.628;2023-04-26T01:33:45;5.40;;;2.00;;
74670;SDS011;63196;39.564;2.628;2023-04-26T01:36:10;4.30;;;2.20;;
74670;SDS011;63196;39.564;2.628;2023-04-26T01:38:36;5.80;;;2.40;;
74670;SDS011;63196;39.564;2.628;2023-04-26T01:41:01;4.60;;;2.50;;
74670;SDS011;63196;39.564;2.628;2023-04-26T01:43:26;6.20;;;2.20;;
74670;SDS011;63196;39.564;2.628;2023-04-26T01:45:52;5.60;;;2.40;;
74670;SDS011;63196;39.564;2.628;2023-04-26T01:48:17;4.40;;;2.10;;
74670;SDS011;63196;39.564;2.628;2023-04-26T01:50:42;5.40;;;2.40;;
74670;SDS011;63196;39.564;2.628;2023-04-26T01:53:08;5.00;;;1.80;;
74670;SDS011;63196;39.564;2.628;2023-04-26T01:55:33;4.80;;;2.30;;
74670;SDS011;63196;39.564;2.628;2023-04-26T01:57:59;5.40;;;2.30;;
74670;SDS011;63196;39.564;2.628;2023-04-26T02:00:25;6.60;;;2.20;;
74670;SDS011;63196;39.564;2.628;2023-04-26T02:02:53;4.60;;;2.10;;
74670;SDS011;63196;39.564;2.628;2023-04-26T02:07:44;5.70;;;2.40;;
74670;SDS011;63196;39.564;2.628;2023-04-26T02:10:09;4.30;;;1.80;;
74670;SDS011;63196;39.564;2.628;2023-04-26T02:12:35;4.90;;;2.00;;
74670;SDS011;63196;39.564;2.628;2023-04-26T02:15:00;7.40;;;2.40;;
74670;SDS011;63196;39.564;2.628;2023-04-26T02:17:25;5.30;;;2.30;;
74670;SDS011;63196;39.564;2.628;2023-04-26T02:19:51;11.00;;;2.60;;
74670;SDS011;63196;39.564;2.628;2023-04-26T02:22:17;4.20;;;2.60;;
74670;SDS011;63196;39.564;2.628;2023-04-26T02:24:42;4.80;;;2.40;;
74670;SDS011;63196;39.564;2.628;2023-04-26T02:27:08;4.90;;;2.10;;
74670;SDS011;63196;39.564;2.628;2023-04-26T02:29:33;6.70;;;2.50;;
74670;SDS011;63196;39.564;2.628;2023-04-26T02:32:01;6.30;;;2.90;;
74670;SDS011;63196;39.564;2.628;2023-04-26T02:34:26;6.00;;;2.50;;
74670;SDS011;63196;39.564;2.628;2023-04-26T02:36:52;5.20;;;2.70;;
74670;SDS011;63196;39.564;2.628;2023-04-26T02:39:17;6.10;;;2.50;;
74670;SDS011;63196;39.564;2.628;2023-04-26T02:41:43;5.50;;;2.40;;
74670;SDS011;63196;39.564;2.628;2023-04-26T02:44:08;7.20;;;2.60;;
74670;SDS011;63196;39.564;2.628;2023-04-26T02:46:34;5.30;;;2.30;;
74670;SDS011;63196;39.564;2.628;2023-04-26T02:48:59;5.80;;;2.10;;
74670;SDS011;63196;39.564;2.628;2023-04-26T02:51:25;4.50;;;2.00;;
74670;SDS011;63196;39.564;2.628;2023-04-26T02:53:51;5.10;;;2.00;;
74670;SDS011;63196;39.564;2.628;2023-04-26T02:56:16;8.60;;;2.60;;
74670;SDS011;63196;39.564;2.628;2023-04-26T02:58:41;8.40;;;2.80;;
74670;SDS011;63196;39.564;2.628;2023-04-26T03:01:07;7.90;;;3.50;;
74670;SDS011;63196;39.564;2.628;2023-04-26T03:03:32;6.40;;;2.60;;
74670;SDS011;63196;39.564;2.628;2023-04-26T03:05:58;6.10;;;2.40;;
74670;SDS011;63196;39.564;2.628;2023-04-26T03:08:23;6.00;;;2.90;;
74670;SDS011;63196;39.564;2.628;2023-04-26T03:10:48;6.00;;;2.80;;
74670;SDS011;63196;39.564;2.628;2023-04-26T03:13:14;8.30;;;2.50;;
74670;SDS011;63196;39.564;2.628;2023-04-26T03:15:42;7.20;;;3.00;;
74670;SDS011;63196;39.564;2.628;2023-04-26T03:18:08;4.30;;;2.10;;
74670;SDS011;63196;39.564;2.628;2023-04-26T03:20:33;5.60;;;2.90;;
74670;SDS011;63196;39.564;2.628;2023-04-26T03:22:59;7.90;;;3.30;;
74670;SDS011;63196;39.564;2.628;2023-04-26T03:25:24;8.30;;;2.80;;
74670;SDS011;63196;39.564;2.628;2023-04-26T03:27:50;6.20;;;3.10;;
74670;SDS011;63196;39.564;2.628;2023-04-26T03:30:15;4.10;;;2.00;;
74670;SDS011;63196;39.564;2.628;2023-04-26T03:32:40;5.50;;;2.10;;
74670;SDS011;63196;39.564;2.628;2023-04-26T03:35:06;4.50;;;2.10;;
74670;SDS011;63196;39.564;2.628;2023-04-26T03:37:31;5.30;;;2.20;;
74670;SDS011;63196;39.564;2.628;2023-04-26T03:39:57;6.40;;;2.60;;
74670;SDS011;63196;39.564;2.628;2023-04-26T03:42:22;6.40;;;2.30;;
74670;SDS011;63196;39.564;2.628;2023-04-26T03:44:47;4.60;;;2.40;;
74670;SDS011;63196;39.564;2.628;2023-04-26T03:47:13;5.50;;;2.60;;
74670;SDS011;63196;39.564;2.628;2023-04-26T03:49:40;7.30;;;3.00;;
74670;SDS011;63196;39.564;2.628;2023-04-26T03:52:05;6.70;;;3.10;;
74670;SDS011;63196;39.564;2.628;2023-04-26T03:54:30;7.10;;;3.30;;
74670;SDS011;63196;39.564;2.628;2023-04-26T03:56:56;6.10;;;3.10;;
74670;SDS011;63196;39.564;2.628;2023-04-26T03:59:21;5.20;;;2.20;;
74670;SDS011;63196;39.564;2.628;2023-04-26T04:01:47;5.60;;;2.50;;
74670;SDS011;63196;39.564;2.628;2023-04-26T04:04:12;7.60;;;2.90;;
74670;SDS011;63196;39.564;2.628;2023-04-26T04:06:37;5.10;;;2.30;;
74670;SDS011;63196;39.564;2.628;2023-04-26T04:09:03;8.40;;;3.50;;
74670;SDS011;63196;39.564;2.628;2023-04-26T04:11:30;6.40;;;2.70;;
74670;SDS011;63196;39.564;2.628;2023-04-26T04:13:55;5.20;;;2.20;;
74670;SDS011;63196;39.564;2.628;2023-04-26T04:16:20;7.10;;;2.60;;
74670;SDS011;63196;39.564;2.628;2023-04-26T04:18:46;10.10;;;3.30;;
74670;SDS011;63196;39.564;2.628;2023-04-26T04:21:11;4.70;;;2.30;;
74670;SDS011;63196;39.564;2.628;2023-04-26T04:23:37;7.40;;;2.80;;
74670;SDS011;63196;39.564;2.628;2023-04-26T04:26:02;6.50;;;2.60;;
74670;SDS011;63196;39.564;2.628;2023-04-26T04:28:28;5.00;;;2.50;;
74670;SDS011;63196;39.564;2.628;2023-04-26T04:30:53;5.60;;;2.80;;
74670;SDS011;63196;39.564;2.628;2023-04-26T04:33:21;7.70;;;3.20;;
74670;SDS011;63196;39.564;2.628;2023-04-26T04:35:46;9.20;;;3.00;;
74670;SDS011;63196;39.564;2.628;2023-04-26T04:38:11;9.20;;;3.20;;
74670;SDS011;63196;39.564;2.628;2023-04-26T04:40:37;6.90;;;2.60;;
74670;SDS011;63196;39.564;2.628;2023-04-26T04:43:02;6.90;;;3.20;;
74670;SDS011;63196;39.564;2.628;2023-04-26T04:45:28;8.00;;;3.50;;
74670;SDS011;63196;39.564;2.628;2023-04-26T04:47:53;5.50;;;3.00;;
74670;SDS011;63196;39.564;2.628;2023-04-26T04:50:19;8.30;;;3.20;;
74670;SDS011;63196;39.564;2.628;2023-04-26T04:52:44;8.60;;;3.50;;
74670;SDS011;63196;39.564;2.628;2023-04-26T04:55:10;5.80;;;3.10;;
74670;SDS011;63196;39.564;2.628;2023-04-26T04:57:35;7.30;;;2.90;;
74670;SDS011;63196;39.564;2.628;2023-04-26T05:00:01;7.70;;;2.80;;
74670;SDS011;63196;39.564;2.628;2023-04-26T05:02:34;7.20;;;2.90;;
74670;SDS011;63196;39.564;2.628;2023-04-26T05:05:00;7.70;;;3.30;;
74670;SDS011;63196;39.564;2.628;2023-04-26T05:07:26;5.90;;;3.10;;
74670;SDS011;63196;39.564;2.628;2023-04-26T05:09:52;5.30;;;2.50;;
74670;SDS011;63196;39.564;2.628;2023-04-26T05:12:17;6.00;;;2.90;;
74670;SDS011;63196;39.564;2.628;2023-04-26T05:14:42;6.00;;;2.70;;
74670;SDS011;63196;39.564;2.628;2023-04-26T05:17:08;7.00;;;3.40;;
74670;SDS011;63196;39.564;2.628;2023-04-26T05:19:33;5.30;;;2.80;;
74670;SDS011;63196;39.564;2.628;2023-04-26T05:21:59;5.10;;;2.40;;
74670;SDS011;63196;39.564;2.628;2023-04-26T05:24:24;7.20;;;3.40;;
74670;SDS011;63196;39.564;2.628;2023-04-26T05:26:50;5.50;;;2.50;;
74670;SDS011;63196;39.564;2.628;2023-04-26T05:29:15;5.80;;;2.30;;
74670;SDS011;63196;39.564;2.628;2023-04-26T05:31:40;5.90;;;2.60;;
74670;SDS011;63196;39.564;2.628;2023-04-26T05:34:06;7.60;;;2.90;;
74670;SDS011;63196;39.564;2.628;2023-04-26T05:36:31;6.20;;;2.60;;
74670;SDS011;63196;39.564;2.628;2023-04-26T05:38:57;5.00;;;2.00;;
74670;SDS011;63196;39.564;2.628;2023-04-26T05:41:22;5.80;;;2.30;;
74670;SDS011;63196;39.564;2.628;2023-04-26T05:43:48;5.50;;;2.60;;
74670;SDS011;63196;39.564;2.628;2023-04-26T05:46:13;4.80;;;1.90;;
74670;SDS011;63196;39.564;2.628;2023-04-26T05:48:39;5.30;;;1.70;;
74670;SDS011;63196;39.564;2.628;2023-04-26T05:51:04;5.60;;;1.80;;
74670;SDS011;63196;39.564;2.628;2023-04-26T05:53:29;5.00;;;1.80;;
74670;SDS011;63196;39.564;2.628;2023-04-26T05:55:55;3.40;;;1.20;;
74670;SDS011;63196;39.564;2.628;2023-04-26T05:58:20;3.40;;;1.50;;
74670;SDS011;63196;39.564;2.628;2023-04-26T06:00:46;4.30;;;1.70;;
74670;SDS011;63196;39.564;2.628;2023-04-26T06:03:11;4.90;;;1.70;;
74670;SDS011;63196;39.564;2.628;2023-04-26T06:05:37;3.90;;;1.60;;
74670;SDS011;63196;39.564;2.628;2023-04-26T06:08:02;5.00;;;1.50;;
74670;SDS011;63196;39.564;2.628;2023-04-26T06:10:28;3.50;;;1.20;;
74670;SDS011;63196;39.564;2.628;2023-04-26T06:12:53;4.30;;;1.60;;
74670;SDS011;63196;39.564;2.628;2023-04-26T06:15:18;5.40;;;1.30;;
74670;SDS011;63196;39.564;2.628;2023-04-26T06:17:44;3.70;;;1.70;;
74670;SDS011;63196;39.564;2.628;2023-04-26T06:20:09;4.30;;;1.40;;
74670;SDS011;63196;39.564;2.628;2023-04-26T06:22:35;4.30;;;1.70;;
74670;SDS011;63196;39.564;2.628;2023-04-26T06:25:00;4.50;;;1.50;;
74670;SDS011;63196;39.564;2.628;2023-04-26T06:27:26;5.20;;;1.40;;
74670;SDS011;63196;39.564;2.628;2023-04-26T06:29:51;3.20;;;1.20;;
74670;SDS011;63196;39.564;2.628;2023-04-26T06:32:17;4.40;;;1.20;;
74670;SDS011;63196;39.564;2.628;2023-04-26T06:34:42;3.80;;;1.50;;
74670;SDS011;63196;39.564;2.628;2023-04-26T06:37:10;2.60;;;1.10;;
74670;SDS011;63196;39.564;2.628;2023-04-26T06:39:35;2.90;;;1.30;;
74670;SDS011;63196;39.564;2.628;2023-04-26T06:42:03;4.00;;;1.60;;
74670;SDS011;63196;39.564;2.628;2023-04-26T06:44:28;2.70;;;1.30;;
74670;SDS011;63196;39.564;2.628;2023-04-26T06:46:55;2.60;;;0.90;;
74670;SDS011;63196;39.564;2.628;2023-04-26T06:49:21;4.40;;;1.60;;
74670;SDS011;63196;39.564;2.628;2023-04-26T06:51:46;3.70;;;1.40;;
74670;SDS011;63196;39.564;2.628;2023-04-26T06:54:11;2.60;;;0.90;;
74670;SDS011;63196;39.564;2.628;2023-04-26T06:56:37;3.20;;;1.40;;
74670;SDS011;63196;39.564;2.628;2023-04-26T06:59:03;3.80;;;1.30;;
74670;SDS011;63196;39.564;2.628;2023-04-26T07:01:29;4.50;;;1.60;;
74670;SDS011;63196;39.564;2.628;2023-04-26T07:04:04;3.70;;;1.20;;
74670;SDS011;63196;39.564;2.628;2023-04-26T07:06:31;6.50;;;1.10;;
74670;SDS011;63196;39.564;2.628;2023-04-26T07:08:57;4.00;;;1.20;;
74670;SDS011;63196;39.564;2.628;2023-04-26T07:11:23;3.50;;;1.00;;
74670;SDS011;63196;39.564;2.628;2023-04-26T07:13:48;2.30;;;0.80;;
74670;SDS011;63196;39.564;2.628;2023-04-26T07:16:15;2.40;;;0.80;;
74670;SDS011;63196;39.564;2.628;2023-04-26T07:18:40;3.80;;;0.80;;
74670;SDS011;63196;39.564;2.628;2023-04-26T07:21:05;2.10;;;0.80;;
74670;SDS011;63196;39.564;2.628;2023-04-26T07:23:31;2.40;;;0.80;;
74670;SDS011;63196;39.564;2.628;2023-04-26T07:25:56;2.20;;;0.70;;
74670;SDS011;63196;39.564;2.628;2023-04-26T07:28:22;3.00;;;1.20;;
74670;SDS011;63196;39.564;2.628;2023-04-26T07:30:47;1.90;;;0.60;;
74670;SDS011;63196;39.564;2.628;2023-04-26T07:33:13;4.10;;;0.80;;
74670;SDS011;63196;39.564;2.628;2023-04-26T07:35:38;2.70;;;0.70;;
74670;SDS011;63196;39.564;2.628;2023-04-26T07:38:03;1.50;;;0.60;;
74670;SDS011;63196;39.564;2.628;2023-04-26T07:40:29;3.00;;;1.00;;
74670;SDS011;63196;39.564;2.628;2023-04-26T07:42:55;2.50;;;0.90;;
74670;SDS011;63196;39.564;2.628;2023-04-26T07:45:20;1.50;;;0.50;;
74670;SDS011;63196;39.564;2.628;2023-04-26T07:47:46;1.60;;;0.50;;
74670;SDS011;63196;39.564;2.628;2023-04-26T07:50:11;2.80;;;0.80;;
74670;SDS011;63196;39.564;2.628;2023-04-26T07:52:38;4.00;;;0.70;;
74670;SDS011;63196;39.564;2.628;2023-04-26T07:55:04;2.40;;;0.70;;
74670;SDS011;63196;39.564;2.628;2023-04-26T07:57:30;3.70;;;0.80;;
74670;SDS011;63196;39.564;2.628;2023-04-26T07:59:56;4.20;;;1.00;;
74670;SDS011;63196;39.564;2.628;2023-04-26T08:02:21;4.80;;;0.70;;
74670;SDS011;63196;39.564;2.628;2023-04-26T08:04:48;2.90;;;0.90;;
74670;SDS011;63196;39.564;2.628;2023-04-26T08:07:14;3.40;;;0.90;;
74670;SDS011;63196;39.564;2.628;2023-04-26T08:09:40;3.60;;;0.70;;
74670;SDS011;63196;39.564;2.628;2023-04-26T08:12:05;2.40;;;0.90;;
74670;SDS011;63196;39.564;2.628;2023-04-26T08:14:31;1.80;;;0.70;;
74670;SDS011;63196;39.564;2.628;2023-04-26T08:16:58;4.50;;;0.90;;
74670;SDS011;63196;39.564;2.628;2023-04-26T08:19:23;5.00;;;0.90;;
74670;SDS011;63196;39.564;2.628;2023-04-26T08:21:50;3.60;;;0.90;;
74670;SDS011;63196;39.564;2.628;2023-04-26T08:24:16;2.60;;;0.80;;
74670;SDS011;63196;39.564;2.628;2023-04-26T08:26:41;2.30;;;0.80;;
74670;SDS011;63196;39.564;2.628;2023-04-26T08:29:06;3.50;;;0.80;;
74670;SDS011;63196;39.564;2.628;2023-04-26T08:31:32;2.20;;;0.80;;
74670;SDS011;63196;39.564;2.628;2023-04-26T08:33:57;2.10;;;0.70;;
74670;SDS011;63196;39.564;2.628;2023-04-26T08:36:23;4.10;;;0.90;;
74670;SDS011;63196;39.564;2.628;2023-04-26T08:38:48;3.10;;;0.90;;
74670;SDS011;63196;39.564;2.628;2023-04-26T08:41:13;2.10;;;0.50;;
74670;SDS011;63196;39.564;2.628;2023-04-26T08:43:39;4.30;;;1.00;;
74670;SDS011;63196;39.564;2.628;2023-04-26T08:46:06;3.00;;;0.90;;
74670;SDS011;63196;39.564;2.628;2023-04-26T08:48:33;2.90;;;1.00;;
74670;SDS011;63196;39.564;2.628;2023-04-26T08:50:58;2.90;;;0.80;;
74670;SDS011;63196;39.564;2.628;2023-04-26T08:53:24;2.10;;;0.70;;
74670;SDS011;63196;39.564;2.628;2023-04-26T08:55:50;3.10;;;1.00;;
74670;SDS011;63196;39.564;2.628;2023-04-26T08:58:17;2.60;;;1.00;;
74670;SDS011;63196;39.564;2.628;2023-04-26T09:00:43;2.10;;;0.70;;
74670;SDS011;63196;39.564;2.628;2023-04-26T09:03:12;2.50;;;0.80;;
74670;SDS011;63196;39.564;2.628;2023-04-26T09:05:40;3.30;;;0.90;;
74670;SDS011;63196;39.564;2.628;2023-04-26T09:08:12;2.30;;;1.00;;
74670;SDS011;63196;39.564;2.628;2023-04-26T09:10:40;2.60;;;1.00;;
74670;SDS011;63196;39.564;2.628;2023-04-26T09:13:06;3.20;;;0.80;;
74670;SDS011;63196;39.564;2.628;2023-04-26T09:15:31;2.60;;;0.80;;
74670;SDS011;63196;39.564;2.628;2023-04-26T09:18:00;3.30;;;0.90;;
74670;SDS011;63196;39.564;2.628;2023-04-26T09:20:40;2.90;;;1.00;;
74670;SDS011;63196;39.564;2.628;2023-04-26T09:23:06;2.50;;;1.00;;
74670;SDS011;63196;39.564;2.628;2023-04-26T09:25:32;5.30;;;0.90;;
74670;SDS011;63196;39.564;2.628;2023-04-26T09:27:58;2.40;;;0.60;;
74670;SDS011;63196;39.564;2.628;2023-04-26T09:30:24;2.30;;;0.70;;
74670;SDS011;63196;39.564;2.628;2023-04-26T09:32:57;3.30;;;0.80;;
74670;SDS011;63196;39.564;2.628;2023-04-26T09:38:13;2.30;;;0.90;;
74670;SDS011;63196;39.564;2.628;2023-04-26T09:40:42;2.20;;;0.80;;
74670;SDS011;63196;39.564;2.628;2023-04-26T09:43:11;3.40;;;1.40;;
74670;SDS011;63196;39.564;2.628;2023-04-26T09:45:46;3.80;;;1.90;;
74670;SDS011;63196;39.564;2.628;2023-04-26T09:48:14;3.30;;;1.50;;
74670;SDS011;63196;39.564;2.628;2023-04-26T09:50:41;2.80;;;1.20;;
74670;SDS011;63196;39.564;2.628;2023-04-26T09:53:07;4.30;;;1.80;;
74670;SDS011;63196;39.564;2.628;2023-04-26T09:55:32;3.90;;;1.60;;
74670;SDS011;63196;39.564;2.628;2023-04-26T09:57:58;2.80;;;1.10;;
74670;SDS011;63196;39.564;2.628;2023-04-26T10:00:27;5.00;;;2.00;;
74670;SDS011;63196;39.564;2.628;2023-04-26T10:02:54;4.10;;;1.80;;
74670;SDS011;63196;39.564;2.628;2023-04-26T10:05:20;3.20;;;1.20;;
74670;SDS011;63196;39.564;2.628;2023-04-26T10:07:46;3.00;;;0.90;;
74670;SDS011;63196;39.564;2.628;2023-04-26T10:10:11;1.80;;;0.70;;
74670;SDS011;63196;39.564;2.628;2023-04-26T10:12:37;2.30;;;0.80;;
74670;SDS011;63196;39.564;2.628;2023-04-26T10:15:04;2.40;;;1.00;;
74670;SDS011;63196;39.564;2.628;2023-04-26T10:17:31;2.60;;;1.00;;
74670;SDS011;63196;39.564;2.628;2023-04-26T10:19:56;2.60;;;0.90;;
74670;SDS011;63196;39.564;2.628;2023-04-26T10:22:23;2.50;;;0.80;;
74670;SDS011;63196;39.564;2.628;2023-04-26T10:27:15;2.30;;;0.70;;
74670;SDS011;63196;39.564;2.628;2023-04-26T10:32:19;1.50;;;0.60;;
74670;SDS011;63196;39.564;2.628;2023-04-26T10:37:29;2.70;;;0.60;;
74670;SDS011;63196;39.564;2.628;2023-04-26T10:39:55;1.50;;;0.50;;
74670;SDS011;63196;39.564;2.628;2023-04-26T10:42:40;2.60;;;0.70;;
74670;SDS011;63196;39.564;2.628;2023-04-26T10:47:50;2.30;;;0.70;;
74670;SDS011;63196;39.564;2.628;2023-04-26T10:50:37;2.50;;;0.60;;
74670;SDS011;63196;39.564;2.628;2023-04-26T10:53:21;2.20;;;0.50;;
74670;SDS011;63196;39.564;2.628;2023-04-26T10:55:46;1.60;;;0.70;;
74670;SDS011;63196;39.564;2.628;2023-04-26T10:58:27;3.60;;;0.80;;
74670;SDS011;63196;39.564;2.628;2023-04-26T11:03:39;2.50;;;0.70;;
74670;SDS011;63196;39.564;2.628;2023-04-26T11:06:05;3.10;;;0.60;;
74670;SDS011;63196;39.564;2.628;2023-04-26T11:08:31;2.90;;;1.00;;
74670;SDS011;63196;39.564;2.628;2023-04-26T11:13:22;1.70;;;0.60;;
74670;SDS011;63196;39.564;2.628;2023-04-26T11:15:51;4.50;;;0.80;;
74670;SDS011;63196;39.564;2.628;2023-04-26T11:18:17;2.30;;;0.70;;
74670;SDS011;63196;39.564;2.628;2023-04-26T11:20:43;2.80;;;0.70;;
74670;SDS011;63196;39.564;2.628;2023-04-26T11:23:08;4.00;;;0.80;;
74670;SDS011;63196;39.564;2.628;2023-04-26T11:25:34;2.20;;;0.70;;
74670;SDS011;63196;39.564;2.628;2023-04-26T11:28:03;2.20;;;0.70;;
74670;SDS011;63196;39.564;2.628;2023-04-26T11:30:30;1.30;;;0.40;;
74670;SDS011;63196;39.564;2.628;2023-04-26T11:32:56;3.60;;;0.60;;
74670;SDS011;63196;39.564;2.628;2023-04-26T11:35:22;1.40;;;0.50;;
74670;SDS011;63196;39.564;2.628;2023-04-26T11:37:50;1.80;;;0.60;;
74670;SDS011;63196;39.564;2.628;2023-04-26T11:40:16;1.70;;;0.70;;
74670;SDS011;63196;39.564;2.628;2023-04-26T11:42:42;1.30;;;0.50;;
74670;SDS011;63196;39.564;2.628;2023-04-26T11:45:07;1.60;;;0.60;;
74670;SDS011;63196;39.564;2.628;2023-04-26T11:47:33;3.30;;;0.60;;
74670;SDS011;63196;39.564;2.628;2023-04-26T11:49:59;1.60;;;0.60;;
74670;SDS011;63196;39.564;2.628;2023-04-26T11:52:25;0.90;;;0.50;;
74670;SDS011;63196;39.564;2.628;2023-04-26T11:54:58;1.10;;;0.50;;
74670;SDS011;63196;39.564;2.628;2023-04-26T11:57:25;1.50;;;0.50;;
74670;SDS011;63196;39.564;2.628;2023-04-26T12:00:05;3.40;;;0.60;;
74670;SDS011;63196;39.564;2.628;2023-04-26T12:02:34;2.80;;;0.60;;
74670;SDS011;63196;39.564;2.628;2023-04-26T12:04:59;1.90;;;0.60;;
74670;SDS011;63196;39.564;2.628;2023-04-26T12:07:25;1.50;;;0.50;;
74670;SDS011;63196;39.564;2.628;2023-04-26T12:09:51;1.90;;;0.70;;
74670;SDS011;63196;39.564;2.628;2023-04-26T12:12:16;2.30;;;0.70;;
74670;SDS011;63196;39.564;2.628;2023-04-26T12:14:42;2.20;;;0.50;;
74670;SDS011;63196;39.564;2.628;2023-04-26T12:17:09;1.10;;;0.50;;
74670;SDS011;63196;39.564;2.628;2023-04-26T12:19:35;1.60;;;0.40;;
74670;SDS011;63196;39.564;2.628;2023-04-26T12:22:01;3.50;;;0.50;;
74670;SDS011;63196;39.564;2.628;2023-04-26T12:24:28;3.20;;;0.60;;
74670;SDS011;63196;39.564;2.628;2023-04-26T12:27:03;1.00;;;0.30;;
74670;SDS011;63196;39.564;2.628;2023-04-26T12:29:30;1.70;;;0.40;;
74670;SDS011;63196;39.564;2.628;2023-04-26T12:31:56;2.10;;;0.60;;
74670;SDS011;63196;39.564;2.628;2023-04-26T12:34:22;2.70;;;0.50;;
74670;SDS011;63196;39.564;2.628;2023-04-26T12:36:47;1.40;;;0.50;;
74670;SDS011;63196;39.564;2.628;2023-04-26T12:39:13;2.90;;;0.50;;
74670;SDS011;63196;39.564;2.628;2023-04-26T12:41:43;1.80;;;0.50;;
74670;SDS011;63196;39.564;2.628;2023-04-26T12:44:08;2.60;;;0.60;;
74670;SDS011;63196;39.564;2.628;2023-04-26T12:46:34;2.00;;;0.60;;
74670;SDS011;63196;39.564;2.628;2023-04-26T12:49:00;2.50;;;0.50;;
74670;SDS011;63196;39.564;2.628;2023-04-26T12:51:25;4.30;;;0.70;;
74670;SDS011;63196;39.564;2.628;2023-04-26T12:53:51;2.70;;;0.60;;
74670;SDS011;63196;39.564;2.628;2023-04-26T12:56:16;1.80;;;0.60;;
74670;SDS011;63196;39.564;2.628;2023-04-26T12:58:42;1.00;;;0.40;;
74670;SDS011;63196;39.564;2.628;2023-04-26T13:01:07;1.80;;;0.60;;
74670;SDS011;63196;39.564;2.628;2023-04-26T13:03:33;1.40;;;0.50;;
74670;SDS011;63196;39.564;2.628;2023-04-26T13:05:58;2.70;;;0.60;;
74670;SDS011;63196;39.564;2.628;2023-04-26T13:08:24;1.60;;;0.60;;
74670;SDS011;63196;39.564;2.628;2023-04-26T13:10:49;1.00;;;0.40;;
74670;SDS011;63196;39.564;2.628;2023-04-26T13:13:15;1.50;;;0.40;;
74670;SDS011;63196;39.564;2.628;2023-04-26T13:15:40;3.00;;;0.50;;
74670;SDS011;63196;39.564;2.628;2023-04-26T13:18:06;3.60;;;1.00;;
74670;SDS011;63196;39.564;2.628;2023-04-26T13:20:31;2.10;;;0.70;;
74670;SDS011;63196;39.564;2.628;2023-04-26T13:22:57;1.20;;;0.50;;
74670;SDS011;63196;39.564;2.628;2023-04-26T13:25:22;2.50;;;0.70;;
74670;SDS011;63196;39.564;2.628;2023-04-26T13:27:47;2.90;;;0.50;;
74670;SDS011;63196;39.564;2.628;2023-04-26T13:30:13;0.90;;;0.40;;
74670;SDS011;63196;39.564;2.628;2023-04-26T13:32:38;1.20;;;0.40;;
74670;SDS011;63196;39.564;2.628;2023-04-26T13:35:04;1.60;;;0.50;;
74670;SDS011;63196;39.564;2.628;2023-04-26T13:37:30;2.50;;;0.60;;
74670;SDS011;63196;39.564;2.628;2023-04-26T13:39:55;2.10;;;0.50;;
74670;SDS011;63196;39.564;2.628;2023-04-26T13:42:22;2.20;;;0.50;;
74670;SDS011;63196;39.564;2.628;2023-04-26T13:44:48;1.70;;;0.50;;
74670;SDS011;63196;39.564;2.628;2023-04-26T13:47:14;1.90;;;0.40;;
74670;SDS011;63196;39.564;2.628;2023-04-26T13:49:39;3.60;;;0.80;;
74670;SDS011;63196;39.564;2.628;2023-04-26T13:52:09;3.50;;;0.60;;
74670;SDS011;63196;39.564;2.628;2023-04-26T13:54:35;3.90;;;0.70;;
74670;SDS011;63196;39.564;2.628;2023-04-26T13:57:01;4.50;;;1.20;;
74670;SDS011;63196;39.564;2.628;2023-04-26T13:59:26;2.80;;;0.90;;
74670;SDS011;63196;39.564;2.628;2023-04-26T14:01:52;5.80;;;1.20;;
74670;SDS011;63196;39.564;2.628;2023-04-26T14:04:17;4.80;;;0.80;;
74670;SDS011;63196;39.564;2.628;2023-04-26T14:06:43;2.60;;;0.60;;
74670;SDS011;63196;39.564;2.628;2023-04-26T14:09:08;2.50;;;0.80;;
74670;SDS011;63196;39.564;2.628;2023-04-26T14:11:34;2.70;;;0.80;;
74670;SDS011;63196;39.564;2.628;2023-04-26T14:14:00;3.00;;;0.80;;
74670;SDS011;63196;39.564;2.628;2023-04-26T14:16:25;3.70;;;0.70;;
74670;SDS011;63196;39.564;2.628;2023-04-26T14:18:51;2.00;;;0.70;;
74670;SDS011;63196;39.564;2.628;2023-04-26T14:21:19;1.70;;;0.60;;
74670;SDS011;63196;39.564;2.628;2023-04-26T14:23:44;2.70;;;1.00;;
74670;SDS011;63196;39.564;2.628;2023-04-26T14:26:10;2.40;;;0.80;;
74670;SDS011;63196;39.564;2.628;2023-04-26T14:28:36;2.40;;;0.90;;
74670;SDS011;63196;39.564;2.628;2023-04-26T14:31:01;4.90;;;1.20;;
74670;SDS011;63196;39.564;2.628;2023-04-26T14:33:27;2.60;;;1.10;;
74670;SDS011;63196;39.564;2.628;2023-04-26T14:35:53;3.20;;;1.00;;
74670;SDS011;63196;39.564;2.628;2023-04-26T14:38:18;3.20;;;0.90;;
74670;SDS011;63196;39.564;2.628;2023-04-26T14:40:44;2.40;;;0.80;;
74670;SDS011;63196;39.564;2.628;2023-04-26T14:43:09;1.60;;;0.50;;
74670;SDS011;63196;39.564;2.628;2023-04-26T14:45:35;2.40;;;0.70;;
74670;SDS011;63196;39.564;2.628;2023-04-26T14:48:01;2.40;;;0.60;;
74670;SDS011;63196;39.564;2.628;2023-04-26T14:50:26;2.50;;;0.70;;
74670;SDS011;63196;39.564;2.628;2023-04-26T14:52:52;2.00;;;0.60;;
74670;SDS011;63196;39.564;2.628;2023-04-26T14:55:18;3.10;;;0.80;;
74670;SDS011;63196;39.564;2.628;2023-04-26T14:57:43;2.90;;;0.60;;
74670;SDS011;63196;39.564;2.628;2023-04-26T15:00:09;2.10;;;0.70;;
74670;SDS011;63196;39.564;2.628;2023-04-26T15:02:42;1.70;;;0.50;;
74670;SDS011;63196;39.564;2.628;2023-04-26T15:05:08;3.30;;;0.50;;